Time;durP1;ratioP1;P1;durP2;ratioP2;P2;SDS_P1;SDS_P2;PMS_P1;PMS_P2;Temp;Humidity;BMP_temperature;BMP_pressure;BME280_temperature;BME280_humidity;BME280_pressure;Samples;Min_cycle;Max_cycle;Signal;HPM_P1;HPM_P2
2024/02/14 00:02:38;;;;;;;5.00;2.38;;;;;;;4.06;85.49;100309.50;6294375;28;20097;-76
2024/02/14 00:05:39;;;;;;;4.40;2.88;;;;;;;3.93;86.33;100311.59;6282718;28;20049;-76
2024/02/14 00:08:43;;;;;;;5.13;2.38;;;;;;;4.06;86.54;100309.50;6293219;28;20057;-76
2024/02/14 00:11:44;;;;;;;4.35;2.53;;;;;;;3.93;87.05;100316.78;6286795;28;20051;-75
2024/02/14 00:14:45;;;;;;;3.53;2.35;;;;;;;4.00;86.54;100325.19;6292738;28;20044;-76
2024/02/14 00:17:46;;;;;;;3.42;2.03;;;;;;;3.66;86.42;100327.88;6293936;28;20055;-76
2024/02/14 00:20:47;;;;;;;3.25;2.17;;;;;;;3.94;86.69;100317.63;6291104;28;20049;-76
2024/02/14 00:23:47;;;;;;;5.60;2.88;;;;;;;3.86;85.80;100317.00;6274619;28;20052;-76
2024/02/14 00:26:51;;;;;;;6.47;2.65;;;;;;;3.87;86.36;100331.56;6278268;28;20060;-75
2024/02/14 00:29:53;;;;;;;5.15;2.63;;;;;;;3.89;86.09;100320.34;6276593;28;20080;-76
2024/02/14 00:32:54;;;;;;;5.30;2.63;;;;;;;3.83;86.50;100328.25;6271029;28;20466;-71
2024/02/14 00:35:57;;;;;;;3.58;2.38;;;;;;;3.71;87.33;100332.03;6277951;28;20060;-70
2024/02/14 00:38:58;;;;;;;4.22;2.58;;;;;;;3.75;87.19;100343.13;6270592;28;20580;-71
2024/02/14 00:41:59;;;;;;;4.97;2.70;;;;;;;3.72;87.65;100332.88;6275875;28;20124;-71
2024/02/14 00:45:00;;;;;;;3.60;2.72;;;;;;;3.74;87.62;100337.09;6279943;28;20064;-70
2024/02/14 00:48:03;;;;;;;6.05;2.95;;;;;;;3.77;88.16;100343.91;6280671;28;20059;-70
2024/02/14 00:51:04;;;;;;;3.88;2.30;;;;;;;3.46;89.14;100343.91;6270308;28;20198;-71
2024/02/14 00:54:06;;;;;;;4.68;2.42;;;;;;;3.35;89.67;100345.03;6269993;28;20057;-71
2024/02/14 00:57:07;;;;;;;5.43;2.58;;;;;;;3.51;89.68;100344.63;6270432;28;20491;-70
2024/02/14 01:00:08;;;;;;;4.30;2.63;;;;;;;3.59;89.51;100342.69;6280860;28;20094;-71
2024/02/14 01:03:12;;;;;;;4.35;2.60;;;;;;;3.66;89.31;100340.78;6269953;28;20049;-70
2024/02/14 01:06:15;;;;;;;6.25;2.55;;;;;;;3.51;89.26;100342.06;6280873;28;20072;-71
2024/02/14 01:09:17;;;;;;;5.40;2.83;;;;;;;3.56;89.50;100342.75;6294502;28;20056;-71
2024/02/14 01:12:18;;;;;;;5.55;3.05;;;;;;;3.45;88.44;100345.63;6277855;28;20041;-71
2024/02/14 01:15:19;;;;;;;3.47;2.20;;;;;;;3.46;88.27;100339.59;6279873;28;20114;-72
2024/02/14 01:18:22;;;;;;;4.25;2.38;;;;;;;3.55;88.38;100351.41;6284250;28;20056;-70
2024/02/14 01:21:26;;;;;;;2.55;2.10;;;;;;;3.48;88.31;100345.56;6266884;28;20424;-76
2024/02/14 01:24:28;;;;;;;5.25;2.85;;;;;;;3.42;88.46;100345.75;6271406;28;20045;-76
2024/02/14 01:27:29;;;;;;;3.83;2.08;;;;;;;3.36;88.89;100345.91;6268919;28;20144;-76
2024/02/14 01:30:29;;;;;;;7.15;2.78;;;;;;;3.30;89.84;100343.47;6285914;28;20434;-75
2024/02/14 01:33:30;;;;;;;5.00;2.58;;;;;;;3.46;89.22;100339.59;6274957;28;20057;-76
2024/02/14 01:36:33;;;;;;;3.58;2.40;;;;;;;3.37;88.70;100332.94;6273801;28;20049;-76
2024/02/14 01:39:35;;;;;;;5.00;2.85;;;;;;;3.56;87.76;100340.19;6274168;28;20061;-76
2024/02/14 01:42:36;;;;;;;5.40;2.50;;;;;;;3.48;87.39;100337.84;6273493;28;20049;-75
2024/02/14 01:45:37;;;;;;;3.35;2.22;;;;;;;3.41;87.76;100334.53;6294515;28;20098;-76
2024/02/14 01:48:39;;;;;;;4.57;2.90;;;;;;;3.34;87.80;100342.50;6275886;28;20049;-76
2024/02/14 01:51:44;;;;;;;4.53;2.33;;;;;;;3.15;89.34;100342.13;6274253;28;20152;-76
2024/02/14 01:54:47;;;;;;;4.32;2.67;;;;;;;3.22;88.78;100341.09;6274418;28;20049;-75
2024/02/14 01:57:48;;;;;;;3.05;1.85;;;;;;;3.23;88.51;100347.94;6298688;28;20048;-75
2024/02/14 02:00:49;;;;;;;6.88;2.78;;;;;;;3.20;89.04;100358.34;6298017;28;20494;-75
2024/02/14 02:03:49;;;;;;;4.50;2.35;;;;;;;3.00;90.21;100353.69;6295961;28;20056;-76
2024/02/14 02:06:51;;;;;;;4.80;3.13;;;;;;;2.98;89.86;100352.88;6284518;28;20392;-75
2024/02/14 02:09:51;;;;;;;6.28;2.30;;;;;;;2.98;89.94;100363.19;6284048;28;20044;-75
2024/02/14 02:12:59;;;;;;;5.28;3.08;;;;;;;3.06;89.40;100363.00;6298993;28;20510;-75
2024/02/14 02:16:04;;;;;;;4.05;2.63;;;;;;;3.02;89.04;100360.47;6272357;28;20096;-70
2024/02/14 02:19:08;;;;;;;4.55;2.60;;;;;;;3.05;88.03;100357.00;6286694;28;20041;-70
2024/02/14 02:22:09;;;;;;;5.60;2.63;;;;;;;3.10;87.94;100349.16;6280955;28;20064;-70
2024/02/14 02:25:10;;;;;;;8.52;3.13;;;;;;;3.34;86.94;100360.56;6283061;28;20049;-76
2024/02/14 02:28:11;;;;;;;6.18;2.20;;;;;;;3.31;85.84;100351.16;6273484;28;20542;-70
2024/02/14 02:31:11;;;;;;;3.70;2.15;;;;;;;3.63;84.47;100358.03;6223997;28;20046;-70
2024/02/14 02:34:12;;;;;;;4.03;2.63;;;;;;;3.62;83.83;100350.34;6221537;28;20054;-76
2024/02/14 02:37:13;;;;;;;4.70;1.98;;;;;;;3.74;83.38;100357.72;6228668;28;20135;-70
2024/02/14 02:40:14;;;;;;;5.25;2.60;;;;;;;3.77;82.64;100360.25;6231486;28;20124;-70
2024/02/14 02:43:15;;;;;;;2.67;2.20;;;;;;;3.81;82.21;100364.44;6223794;28;20050;-76
2024/02/14 02:46:16;;;;;;;4.28;2.28;;;;;;;3.80;82.07;100373.06;6239080;28;20057;-75
2024/02/14 02:49:17;;;;;;;2.95;2.10;;;;;;;3.73;82.19;100376.72;6221952;28;20050;-75
2024/02/14 02:52:18;;;;;;;2.67;2.05;;;;;;;3.87;82.07;100378.91;6237460;28;20038;-75
2024/02/14 02:55:18;;;;;;;3.60;2.15;;;;;;;3.95;82.16;100378.66;6223400;28;20079;-76
2024/02/14 02:58:22;;;;;;;5.55;2.25;;;;;;;3.97;82.30;100392.38;6223787;28;20053;-75
2024/02/14 03:01:24;;;;;;;4.72;2.50;;;;;;;3.98;82.50;100396.66;6235966;28;20124;-70
2024/02/14 03:04:25;;;;;;;5.28;2.67;;;;;;;4.07;82.78;100400.72;6247705;28;20103;-70
2024/02/14 03:07:26;;;;;;;4.53;2.65;;;;;;;4.03;82.46;100394.78;6223088;28;20397;-70
2024/02/14 03:10:28;;;;;;;4.10;2.05;;;;;;;4.05;82.80;100393.00;6223240;28;20046;-70
2024/02/14 03:13:29;;;;;;;5.88;2.70;;;;;;;4.00;82.74;100402.63;6223072;28;20141;-70
2024/02/14 03:16:30;;;;;;;3.85;2.67;;;;;;;4.08;82.65;100400.69;6266053;28;20045;-70
2024/02/14 03:19:38;;;;;;;3.33;2.13;;;;;;;3.95;82.91;100404.50;6246112;28;20397;-76
2024/02/14 03:22:44;;;;;;;3.28;2.25;;;;;;;3.99;82.22;100408.69;6247670;28;20408;-76
2024/02/14 03:25:48;;;;;;;3.28;2.10;;;;;;;3.90;82.67;100412.38;6247661;28;20059;-76
2024/02/14 03:28:48;;;;;;;3.05;1.95;;;;;;;3.97;83.05;100413.88;6254124;28;20810;-71
2024/02/14 03:31:49;;;;;;;2.90;1.65;;;;;;;3.92;83.36;100423.50;6272181;28;20049;-71
2024/02/14 03:34:52;;;;;;;3.28;2.33;;;;;;;3.84;83.37;100430.59;6274207;28;20118;-70
2024/02/14 03:37:53;;;;;;;5.30;2.53;;;;;;;3.82;83.80;100429.81;6297229;28;20048;-71
2024/02/14 03:40:57;;;;;;;6.97;2.58;;;;;;;3.83;83.28;100428.94;6294402;28;20045;-70
2024/02/14 03:44:00;;;;;;;3.30;2.22;;;;;;;3.75;83.40;100436.03;6282490;28;20044;-70
2024/02/14 03:47:04;;;;;;;5.68;2.42;;;;;;;3.66;84.17;100436.25;6270643;28;20084;-70
2024/02/14 03:50:05;;;;;;;6.00;2.38;;;;;;;3.77;83.26;100442.00;6288224;28;20052;-71
2024/02/14 03:53:10;;;;;;;4.18;2.72;;;;;;;3.70;83.53;100443.03;6269488;28;20084;-71
2024/02/14 03:56:16;;;;;;;8.20;2.22;;;;;;;3.69;83.40;100436.19;6271361;28;20044;-71
2024/02/14 03:59:24;;;;;;;3.55;2.25;;;;;;;3.59;83.30;100430.41;6274975;28;20052;-70
2024/02/14 04:02:27;;;;;;;8.35;2.63;;;;;;;3.74;83.47;100445.50;6295060;28;20106;-70
2024/02/14 04:05:31;;;;;;;6.88;2.22;;;;;;;3.73;83.00;100445.56;6295565;28;20084;-71
2024/02/14 04:08:33;;;;;;;2.90;2.05;;;;;;;3.71;82.77;100449.91;6280563;28;20136;-70
2024/02/14 04:11:33;;;;;;;3.33;2.30;;;;;;;3.79;83.24;100455.72;6272116;28;20170;-71
2024/02/14 04:14:34;;;;;;;4.45;2.85;;;;;;;3.71;83.21;100457.66;6270207;28;20048;-70
2024/02/14 04:17:35;;;;;;;5.03;2.42;;;;;;;3.72;83.08;100460.16;6271545;28;20053;-70
2024/02/14 04:20:36;;;;;;;3.78;2.05;;;;;;;3.54;83.31;100448.63;6271287;28;20051;-70
2024/02/14 04:23:36;;;;;;;2.88;2.17;;;;;;;3.60;83.78;100460.50;6274802;28;20461;-70
2024/02/14 04:26:37;;;;;;;4.72;2.45;;;;;;;3.39;83.64;100457.56;6278673;28;20487;-70
2024/02/14 04:29:38;;;;;;;5.18;2.38;;;;;;;3.47;84.30;100451.38;6282423;28;20064;-70
2024/02/14 04:32:39;;;;;;;4.00;2.35;;;;;;;3.51;84.93;100458.16;6285306;28;20044;-70
2024/02/14 04:35:42;;;;;;;3.90;2.17;;;;;;;3.57;84.42;100455.41;6275533;28;20060;-76
2024/02/14 04:38:43;;;;;;;3.00;2.30;;;;;;;3.39;84.94;100456.72;6269936;28;20076;-75
2024/02/14 04:41:44;;;;;;;7.07;2.55;;;;;;;3.44;84.74;100470.38;6286452;28;20098;-75
2024/02/14 04:44:45;;;;;;;5.13;2.47;;;;;;;3.48;84.63;100476.28;6294807;28;20131;-76
2024/02/14 04:47:46;;;;;;;3.72;2.40;;;;;;;3.47;84.19;100477.19;6294559;28;20452;-76
2024/02/14 04:50:47;;;;;;;4.70;2.05;;;;;;;3.61;83.09;100481.09;6295718;28;20044;-76
2024/02/14 04:53:50;;;;;;;5.78;1.75;;;;;;;3.82;82.13;100477.09;6295787;28;20518;-76
2024/02/14 04:56:51;;;;;;;3.15;2.05;;;;;;;3.79;82.16;100472.03;6294726;28;20045;-76
2024/02/14 04:59:55;;;;;;;2.92;2.00;;;;;;;3.79;81.57;100471.19;6279985;28;20055;-75
2024/02/14 05:02:57;;;;;;;3.90;2.58;;;;;;;3.82;80.83;100476.28;6278503;28;20098;-76
2024/02/14 05:05:58;;;;;;;4.32;2.92;;;;;;;3.90;80.82;100481.25;6297792;28;20052;-76
2024/02/14 05:08:59;;;;;;;7.90;4.70;;;;;;;3.99;80.61;100488.72;6290761;28;20592;-76
2024/02/14 05:12:03;;;;;;;5.03;2.70;;;;;;;3.94;80.00;100494.00;6278326;28;20048;-76
2024/02/14 05:15:08;;;;;;;3.85;2.35;;;;;;;4.04;80.31;100494.63;6285810;28;20049;-72
2024/02/14 05:18:09;;;;;;;3.00;2.30;;;;;;;4.10;79.94;100497.03;6298256;28;20490;-76
2024/02/14 05:21:10;;;;;;;3.78;1.98;;;;;;;3.75;81.40;100501.41;6285943;28;20055;-71
2024/02/14 05:24:11;;;;;;;5.85;2.17;;;;;;;3.74;81.78;100506.59;6280811;28;20136;-76
2024/02/14 05:27:14;;;;;;;8.90;3.88;;;;;;;3.75;82.07;100503.16;6298860;28;20063;-70
2024/02/14 05:30:15;;;;;;;7.43;3.20;;;;;;;3.64;82.91;100505.97;6291238;28;20139;-70
2024/02/14 05:33:21;;;;;;;5.50;2.33;;;;;;;3.77;83.08;100511.69;6296637;28;20056;-71
2024/02/14 05:36:25;;;;;;;8.10;4.18;;;;;;;3.50;83.86;100513.22;6298963;28;20135;-70
2024/02/14 05:39:28;;;;;;;6.72;4.43;;;;;;;3.56;83.65;100516.50;6299900;28;20135;-70
2024/02/14 05:42:30;;;;;;;10.10;4.20;;;;;;;3.61;84.30;100527.56;6293875;28;20084;-75
2024/02/14 05:45:30;;;;;;;5.47;3.03;;;;;;;3.65;84.71;100540.41;6287764;28;20559;-75
2024/02/14 05:48:31;;;;;;;4.97;2.90;;;;;;;3.49;85.86;100540.75;6285337;28;20103;-70
2024/02/14 05:51:34;;;;;;;6.70;3.53;;;;;;;3.40;87.20;100541.81;6282228;28;20053;-70
2024/02/14 05:54:37;;;;;;;8.10;3.75;;;;;;;3.33;87.77;100539.41;6289815;28;20059;-70
2024/02/14 05:57:38;;;;;;;5.32;3.65;;;;;;;3.13;89.33;100555.34;6299379;28;20044;-70
2024/02/14 06:00:39;;;;;;;9.60;3.70;;;;;;;3.11;90.08;100568.28;6278707;28;20178;-76
2024/02/14 06:03:45;;;;;;;6.07;3.33;;;;;;;3.10;90.55;100563.16;6291312;28;20060;-76
2024/02/14 06:06:46;;;;;;;8.50;3.25;;;;;;;2.95;92.13;100562.59;6289359;28;20106;-76
2024/02/14 06:09:47;;;;;;;10.85;3.55;;;;;;;3.06;92.48;100567.53;6282606;28;20041;-70
2024/02/14 06:12:50;;;;;;;13.45;5.88;;;;;;;2.84;94.02;100564.53;6287688;28;20048;-76
2024/02/14 06:15:52;;;;;;;9.30;4.63;;;;;;;2.95;93.96;100556.59;6298254;28;20048;-76
2024/02/14 06:18:53;;;;;;;7.72;4.72;;;;;;;2.97;94.08;100565.16;6297530;28;20071;-76
2024/02/14 06:21:54;;;;;;;10.75;5.22;;;;;;;3.09;93.79;100562.31;6298791;28;20044;-76
2024/02/14 06:24:55;;;;;;;11.43;4.10;;;;;;;3.07;93.13;100569.22;6279421;28;20063;-75
2024/02/14 06:27:55;;;;;;;9.18;5.03;;;;;;;3.10;92.86;100576.88;6289306;28;20155;-76
2024/02/14 06:30:56;;;;;;;11.18;5.10;;;;;;;3.24;92.89;100574.00;6282922;28;20053;-76
2024/02/14 06:33:57;;;;;;;8.90;4.53;;;;;;;3.21;91.32;100574.94;6270148;28;20079;-75
2024/02/14 06:36:58;;;;;;;7.07;4.57;;;;;;;3.11;91.69;100573.44;6270241;28;20049;-76
2024/02/14 06:39:58;;;;;;;8.43;4.93;;;;;;;3.38;90.27;100569.38;6269964;28;20130;-76
2024/02/14 06:42:59;;;;;;;8.07;4.45;;;;;;;3.43;89.31;100577.00;6271435;28;20136;-70
2024/02/14 06:46:03;;;;;;;11.27;6.95;;;;;;;3.55;88.09;100573.31;6269769;28;20119;-70
2024/02/14 06:49:04;;;;;;;20.15;9.48;;;;;;;3.45;87.85;100569.25;6272199;28;20056;-70
2024/02/14 06:52:05;;;;;;;10.70;5.43;;;;;;;3.71;85.97;100579.78;6271948;28;20045;-70
2024/02/14 06:55:08;;;;;;;8.57;4.55;;;;;;;3.90;84.54;100576.75;6271893;28;20084;-75
2024/02/14 06:58:11;;;;;;;8.52;4.15;;;;;;;4.07;83.84;100590.09;6272016;28;20052;-76
2024/02/14 07:01:15;;;;;;;7.63;3.60;;;;;;;4.11;82.87;100583.94;6271736;28;20132;-76
2024/02/14 07:04:16;;;;;;;7.60;4.68;;;;;;;4.18;82.39;100588.09;6272953;28;20526;-76
2024/02/14 07:07:17;;;;;;;9.52;4.65;;;;;;;4.46;82.59;100600.25;6271685;28;20087;-75
2024/02/14 07:10:20;;;;;;;7.35;4.10;;;;;;;4.42;82.95;100588.31;6271699;28;20098;-76
2024/02/14 07:13:24;;;;;;;8.55;4.63;;;;;;;4.29;82.62;100595.53;6271502;28;20163;-75
2024/02/14 07:16:27;;;;;;;6.45;3.70;;;;;;;4.61;81.98;100592.09;6271646;28;20060;-75
2024/02/14 07:19:28;;;;;;;6.13;3.58;;;;;;;4.74;81.70;100589.16;6272469;28;20052;-75
2024/02/14 07:22:30;;;;;;;4.88;2.88;;;;;;;4.75;80.47;100591.69;6271593;28;20087;-75
2024/02/14 07:25:31;;;;;;;3.67;2.88;;;;;;;4.99;79.24;100590.16;6272927;28;20044;-76
2024/02/14 07:28:32;;;;;;;7.75;3.65;;;;;;;5.12;79.24;100594.94;6271049;28;20150;-76
2024/02/14 07:31:34;;;;;;;7.07;3.22;;;;;;;5.14;78.22;100590.59;6271045;28;20052;-76
2024/02/14 07:34:39;;;;;;;5.57;3.17;;;;;;;5.11;77.72;100594.13;6271782;28;20053;-71
2024/02/14 07:37:41;;;;;;;7.45;3.88;;;;;;;5.48;77.04;100598.16;6272208;28;20057;-71
2024/02/14 07:40:42;;;;;;;9.05;3.72;;;;;;;5.59;76.89;100590.06;6270778;28;20049;-71
2024/02/14 07:43:43;;;;;;;9.55;4.35;;;;;;;5.71;76.17;100596.59;6270670;28;20053;-70
2024/02/14 07:46:43;;;;;;;7.30;3.70;;;;;;;5.93;75.10;100597.59;6271603;28;20049;-70
2024/02/14 07:49:44;;;;;;;6.15;4.03;;;;;;;6.22;74.64;100595.81;6271801;28;20435;-70
2024/02/14 07:52:45;;;;;;;5.97;3.35;;;;;;;6.29;72.81;100602.44;6271768;28;20048;-71
2024/02/14 07:55:46;;;;;;;6.43;3.08;;;;;;;6.33;71.29;100605.78;6270703;28;20087;-71
2024/02/14 07:58:47;;;;;;;5.55;3.00;;;;;;;6.49;71.79;100606.09;6270489;28;20352;-70
2024/02/14 08:01:48;;;;;;;5.43;2.60;;;;;;;6.79;71.31;100604.97;6270347;28;20049;-71
2024/02/14 08:04:49;;;;;;;4.32;2.53;;;;;;;6.88;70.61;100609.00;6271562;28;20465;-71
2024/02/14 08:07:50;;;;;;;3.30;1.80;;;;;;;7.09;67.66;100602.16;6271332;28;20060;-70
2024/02/14 08:10:50;;;;;;;6.43;1.90;;;;;;;6.79;65.29;100607.56;6270275;28;20483;-70
2024/02/14 08:13:53;;;;;;;4.93;2.15;;;;;;;7.28;65.07;100609.25;6270024;28;20067;-70
2024/02/14 08:16:57;;;;;;;4.43;1.98;;;;;;;7.20;63.10;100607.78;6271259;28;20136;-70
2024/02/14 08:20:00;;;;;;;4.78;2.38;;;;;;;7.52;62.67;100610.91;6270725;28;20056;-70
2024/02/14 08:23:03;;;;;;;3.97;2.10;;;;;;;7.45;61.56;100594.72;6270187;28;20052;-70
2024/02/14 08:26:10;;;;;;;3.00;1.88;;;;;;;7.51;61.31;100608.34;6270023;28;20063;-71
2024/02/14 08:29:11;;;;;;;7.03;2.47;;;;;;;7.61;60.31;100607.09;6271179;28;20060;-76
2024/02/14 08:32:12;;;;;;;4.40;1.77;;;;;;;7.63;60.60;100602.66;6271074;28;20049;-75
2024/02/14 08:35:13;;;;;;;4.78;2.17;;;;;;;7.54;60.17;100609.09;6270996;28;20056;-75
2024/02/14 08:38:14;;;;;;;4.15;2.53;;;;;;;7.92;60.14;100603.25;6270779;28;20049;-76
2024/02/14 08:41:18;;;;;;;2.50;1.90;;;;;;;7.69;59.06;100599.81;6270851;28;20063;-76
2024/02/14 08:44:19;;;;;;;4.65;1.98;;;;;;;7.81;58.53;100617.53;6269957;28;20049;-76
2024/02/14 08:47:22;;;;;;;3.17;2.13;;;;;;;7.97;57.77;100614.28;6269655;28;20052;-76
2024/02/14 08:50:22;;;;;;;3.55;1.95;;;;;;;7.97;57.21;100611.69;6270867;28;20045;-75
2024/02/14 08:53:26;;;;;;;5.40;2.30;;;;;;;8.00;57.03;100615.00;6270838;28;20057;-76
2024/02/14 08:56:27;;;;;;;7.22;1.98;;;;;;;8.35;56.61;100630.88;6269538;28;20421;-76
2024/02/14 08:59:28;;;;;;;5.60;2.30;;;;;;;8.35;57.45;100617.03;6269464;28;20406;-76
2024/02/14 09:02:29;;;;;;;2.33;1.95;;;;;;;8.53;57.01;100621.47;6269912;28;20095;-76
2024/02/14 09:05:30;;;;;;;3.47;1.75;;;;;;;8.16;56.60;100623.03;6270740;28;20117;-75
2024/02/14 09:08:31;;;;;;;2.83;1.58;;;;;;;8.57;57.59;100622.19;6270628;28;20102;-77
2024/02/14 09:11:34;;;;;;;2.38;1.58;;;;;;;8.54;55.24;100622.31;6270375;28;20052;-76
2024/02/14 09:14:34;;;;;;;3.25;1.77;;;;;;;8.74;55.05;100622.28;6270545;28;20049;-70
2024/02/14 09:17:35;;;;;;;2.63;1.90;;;;;;;9.07;53.95;100622.53;6270724;28;20060;-70
2024/02/14 09:20:37;;;;;;;3.55;1.73;;;;;;;8.83;54.30;100624.50;6269291;28;20091;-76
2024/02/14 09:23:41;;;;;;;6.20;2.17;;;;;;;8.91;55.88;100626.75;6284864;28;20127;-71
2024/02/14 09:26:42;;;;;;;4.55;2.10;;;;;;;9.04;55.54;100633.09;6294263;28;20284;-71
2024/02/14 09:29:43;;;;;;;2.97;1.63;;;;;;;8.97;55.38;100623.84;6294010;28;20063;-70
2024/02/14 09:32:47;;;;;;;5.85;2.35;;;;;;;8.85;54.65;100632.22;6293885;28;20045;-76
2024/02/14 09:35:52;;;;;;;4.38;2.17;;;;;;;9.24;53.87;100624.34;6294010;28;20049;-76
2024/02/14 09:38:53;;;;;;;6.32;2.83;;;;;;;9.01;52.99;100627.19;6295336;28;20083;-76
2024/02/14 09:42:01;;;;;;;4.20;2.60;;;;;;;9.10;54.31;100628.50;6294938;28;20071;-70
2024/02/14 09:45:02;;;;;;;8.95;2.28;;;;;;;8.90;53.51;100640.69;6295224;28;20135;-70
2024/02/14 09:48:03;;;;;;;2.72;1.88;;;;;;;8.66;52.92;100630.44;6294997;28;20422;-76
2024/02/14 09:51:06;;;;;;;3.28;1.70;;;;;;;9.34;53.96;100631.75;6297946;28;20056;-76
2024/02/14 09:54:10;;;;;;;3.40;1.65;;;;;;;9.41;53.27;100635.75;6298341;28;20051;-70
2024/02/14 09:57:13;;;;;;;5.95;1.77;;;;;;;9.56;53.12;100626.38;6299048;28;20083;-76
2024/02/14 10:00:14;;;;;;;6.65;2.30;;;;;;;9.34;52.14;100627.38;6299087;28;20457;-76
2024/02/14 10:03:15;;;;;;;6.50;1.77;;;;;;;9.52;52.98;100624.84;6298248;28;20053;-70
2024/02/14 10:06:19;;;;;;;2.63;1.97;;;;;;;9.68;53.02;100628.41;6299304;28;20194;-76
2024/02/14 10:09:22;;;;;;;4.10;2.35;;;;;;;9.59;52.96;100624.44;6299604;28;20102;-76
2024/02/14 10:12:22;;;;;;;4.15;2.25;;;;;;;9.67;52.51;100619.72;6298954;28;20052;-70
2024/02/14 10:15:23;;;;;;;6.15;2.08;;;;;;;9.80;52.73;100617.38;6297926;28;20084;-76
2024/02/14 10:18:24;;;;;;;5.45;2.80;;;;;;;9.54;51.25;100608.22;6297682;28;20048;-76
2024/02/14 10:21:25;;;;;;;5.13;2.22;;;;;;;9.65;51.07;100618.94;6299262;28;20087;-76
2024/02/14 10:24:30;;;;;;;3.10;2.10;;;;;;;10.07;50.64;100615.16;6299034;28;20119;-70
2024/02/14 10:27:31;;;;;;;4.57;2.10;;;;;;;10.18;51.87;100612.03;6297486;28;20455;-70
2024/02/14 10:30:33;;;;;;;3.92;2.15;;;;;;;10.41;50.00;100610.03;6297133;28;20556;-70
2024/02/14 10:33:34;;;;;;;4.17;1.93;;;;;;;10.19;48.92;100612.84;6298471;28;20525;-70
2024/02/14 10:36:36;;;;;;;3.75;2.05;;;;;;;10.70;50.01;100613.75;6297476;28;20128;-71
2024/02/14 10:39:38;;;;;;;2.72;2.00;;;;;;;10.42;50.57;100615.19;6297518;28;20048;-71
2024/02/14 10:42:39;;;;;;;3.80;2.25;;;;;;;10.26;51.21;100614.25;6297339;28;20044;-70
2024/02/14 10:45:40;;;;;;;4.18;2.38;;;;;;;10.51;50.46;100613.84;6297225;28;20052;-71
2024/02/14 10:48:44;;;;;;;4.53;1.67;;;;;;;10.13;49.68;100618.38;6296999;28;20452;-70
2024/02/14 10:51:48;;;;;;;5.55;2.15;;;;;;;10.37;49.09;100614.56;6296778;28;20087;-71
2024/02/14 10:54:56;;;;;;;4.50;1.60;;;;;;;10.08;49.42;100622.06;6298150;28;20045;-70
2024/02/14 10:57:58;;;;;;;2.70;1.50;;;;;;;10.23;49.20;100619.59;6296919;28;20135;-71
2024/02/14 11:01:00;;;;;;;4.55;2.22;;;;;;;10.52;49.42;100615.53;6296360;28;20052;-71
2024/02/14 11:04:04;;;;;;;2.50;2.00;;;;;;;10.65;50.10;100618.38;6296485;28;20480;-71
2024/02/14 11:07:09;;;;;;;3.55;1.92;;;;;;;10.55;48.81;100612.78;6294880;28;20045;-70
2024/02/14 11:10:14;;;;;;;4.18;2.00;;;;;;;10.46;49.75;100601.06;6296350;28;20250;-71
2024/02/14 11:13:15;;;;;;;4.88;1.92;;;;;;;10.66;49.95;100602.59;6296029;28;20103;-70
2024/02/14 11:16:16;;;;;;;4.88;2.45;;;;;;;10.92;49.50;100610.00;6297704;28;20055;-70
2024/02/14 11:19:17;;;;;;;3.33;1.60;;;;;;;11.16;48.99;100602.59;6296166;28;20135;-70
2024/02/14 11:22:22;;;;;;;2.85;1.67;;;;;;;11.07;48.98;100596.09;6297139;28;20119;-70
2024/02/14 11:25:31;;;;;;;2.78;1.52;;;;;;;11.15;48.94;100591.31;6296096;28;20056;-76
2024/02/14 11:28:39;;;;;;;3.10;1.80;;;;;;;10.91;49.05;100603.91;6296077;28;20102;-76
2024/02/14 11:31:40;;;;;;;6.80;3.55;;;;;;;11.24;49.30;100584.72;6296993;28;20051;-76
2024/02/14 11:34:43;;;;;;;2.45;1.70;;;;;;;11.21;49.63;100583.13;6295939;28;20057;-71
2024/02/14 11:37:51;;;;;;;5.40;2.33;;;;;;;11.18;48.60;100591.16;6295872;28;20048;-71
2024/02/14 11:40:56;;;;;;;2.20;1.63;;;;;;;10.86;48.08;100595.50;6297178;28;20048;-70
2024/02/14 11:44:03;;;;;;;6.47;1.90;;;;;;;11.24;49.00;100597.78;6295586;28;20106;-76
2024/02/14 11:47:04;;;;;;;2.47;1.45;;;;;;;10.95;48.46;100592.38;6296760;28;20473;-76
2024/02/14 11:50:06;;;;;;;6.40;2.30;;;;;;;10.91;48.67;100592.63;6295633;28;20053;-71
2024/02/14 11:53:10;;;;;;;3.10;2.05;;;;;;;10.69;49.40;100592.03;6295293;28;20083;-70
2024/02/14 11:56:12;;;;;;;4.65;2.05;;;;;;;10.77;49.27;100589.00;6295395;28;20094;-71
2024/02/14 11:59:14;;;;;;;4.22;1.98;;;;;;;10.60;49.37;100596.88;6296490;28;20057;-75
2024/02/14 12:02:16;;;;;;;5.35;2.17;;;;;;;10.78;48.35;100593.28;6295412;28;20040;-70
2024/02/14 12:05:19;;;;;;;3.83;1.90;;;;;;;10.72;47.80;100598.84;6296375;28;20051;-76
2024/02/14 12:08:22;;;;;;;4.65;2.40;;;;;;;10.66;49.42;100591.34;6296274;28;20049;-76
2024/02/14 12:11:24;;;;;;;2.25;1.73;;;;;;;11.27;48.92;100582.78;6295963;28;20044;-76
2024/02/14 12:14:27;;;;;;;;;;;;;;;10.92;49.00;100584.72;6296152;28;20048;-76
2024/02/14 12:17:31;;;;;;;5.53;2.10;;;;;;;10.93;48.19;100588.19;6296211;28;19920;-76
2024/02/14 12:20:33;;;;;;;3.28;1.83;;;;;;;11.60;48.08;100584.44;6296553;28;20040;-76
2024/02/14 12:23:36;;;;;;;3.72;2.08;;;;;;;11.21;49.05;100574.47;6295014;28;20053;-76
2024/02/14 12:26:38;;;;;;;3.92;1.90;;;;;;;11.21;49.04;100579.69;6294805;28;20052;-76
2024/02/14 12:29:39;;;;;;;4.32;1.85;;;;;;;11.19;49.06;100581.53;6295755;28;20059;-76
2024/02/14 12:32:40;;;;;;;3.13;1.80;;;;;;;11.16;49.27;100581.69;6295718;28;20434;-76
2024/02/14 12:35:47;;;;;;;3.78;1.75;;;;;;;10.95;48.15;100575.88;6296132;28;20048;-76
2024/02/14 12:38:48;;;;;;;3.05;1.70;;;;;;;10.73;49.76;100590.09;6295854;28;20383;-76
2024/02/14 12:41:50;;;;;;;7.78;1.90;;;;;;;10.81;49.39;100589.66;6294836;28;20094;-76
2024/02/14 12:44:52;;;;;;;3.20;1.73;;;;;;;10.66;49.02;100588.72;6295705;28;20048;-76
2024/02/14 12:47:56;;;;;;;1.55;1.40;;;;;;;10.79;49.46;100587.16;6295968;28;20045;-76
2024/02/14 12:50:57;;;;;;;1.63;1.35;;;;;;;11.04;49.31;100583.22;6294369;28;20040;-75
2024/02/14 12:53:58;;;;;;;4.78;2.08;;;;;;;10.96;49.07;100591.47;6295691;28;20056;-75
2024/02/14 12:56:59;;;;;;;2.88;1.60;;;;;;;11.16;48.45;100586.91;6295732;28;20048;-75
2024/02/14 13:00:00;;;;;;;4.53;1.77;;;;;;;11.18;49.39;100593.78;6294403;28;20076;-74
2024/02/14 13:03:00;;;;;;;3.45;1.60;;;;;;;11.68;47.85;100586.63;6294452;28;20486;-75
2024/02/14 13:06:01;;;;;;;2.97;1.98;;;;;;;11.21;48.13;100587.53;6295545;28;20123;-74
2024/02/14 13:09:02;;;;;;;4.03;1.67;;;;;;;11.04;48.14;100586.69;6294459;28;20479;-74
2024/02/14 13:12:03;;;;;;;4.25;1.92;;;;;;;10.71;48.87;100591.94;6295361;28;20045;-74
2024/02/14 13:15:06;;;;;;;3.40;1.58;;;;;;;10.99;49.33;100593.06;6295422;28;20063;-74
2024/02/14 13:18:06;;;;;;;1.88;1.42;;;;;;;10.94;49.07;100597.72;6295346;28;20088;-75
2024/02/14 13:21:07;;;;;;;3.50;1.70;;;;;;;10.46;49.36;100590.63;6295484;28;20502;-75
2024/02/14 13:24:08;;;;;;;4.57;1.90;;;;;;;10.75;49.15;100593.47;6296857;28;20068;-75
2024/02/14 13:27:09;;;;;;;2.83;1.60;;;;;;;10.58;49.94;100593.50;6300349;28;20048;-69
2024/02/14 13:30:10;;;;;;;2.92;1.73;;;;;;;11.03;50.96;100597.19;6298472;28;20529;-70
2024/02/14 13:33:12;;;;;;;4.70;1.92;;;;;;;10.69;49.79;100605.06;6299773;28;20578;-75
2024/02/14 13:36:14;;;;;;;2.47;1.70;;;;;;;10.76;50.30;100586.47;6299931;28;20049;-75
2024/02/14 13:39:18;;;;;;;4.78;1.85;;;;;;;10.82;50.21;100589.59;6299720;28;20056;-75
2024/02/14 13:42:19;;;;;;;3.58;2.28;;;;;;;10.60;50.39;100595.09;6299859;28;20045;-75
2024/02/14 13:45:20;;;;;;;2.00;1.50;;;;;;;10.78;51.03;100593.28;6299494;28;20056;-75
2024/02/14 13:48:23;;;;;;;3.70;2.00;;;;;;;10.90;50.77;100597.03;6299556;28;20060;-69
2024/02/14 13:51:24;;;;;;;2.75;1.65;;;;;;;10.70;50.12;100595.47;6299433;28;20044;-69
2024/02/14 13:54:25;;;;;;;4.60;1.80;;;;;;;10.75;49.85;100595.22;6298141;28;20122;-69
2024/02/14 13:57:29;;;;;;;3.60;1.70;;;;;;;10.49;49.52;100597.44;6298197;28;20551;-74
2024/02/14 14:00:30;;;;;;;4.15;2.25;;;;;;;10.39;50.50;100596.22;6299239;28;20453;-69
2024/02/14 14:03:32;;;;;;;7.68;2.60;;;;;;;10.51;49.13;100602.59;6297909;28;20061;-75
2024/02/14 14:06:34;;;;;;;4.28;1.83;;;;;;;10.76;49.85;100602.97;6298979;28;20092;-69
2024/02/14 14:09:35;;;;;;;2.35;1.60;;;;;;;10.66;49.53;100596.56;6298141;28;20052;-69
2024/02/14 14:12:36;;;;;;;3.75;1.75;;;;;;;10.72;49.76;100608.44;6298881;28;20134;-75
2024/02/14 14:15:37;;;;;;;7.97;2.30;;;;;;;10.64;48.98;100603.63;6297948;28;20143;-69